createdAt,value
2018-05-13T00:00:57.562Z,95.56
2018-05-13T00:01:57.751Z,95.65
2018-05-13T00:02:57.940Z,95.84
2018-05-13T00:03:58.128Z,96.03
2018-05-13T00:04:58.316Z,96.18
2018-05-13T00:05:58.505Z,96.03
2018-05-13T00:06:58.694Z,96.22
2018-05-13T00:07:58.882Z,96.37
2018-05-13T00:08:59.072Z,96.18
2018-05-13T00:09:59.258Z,96.08
2018-05-13T00:10:59.447Z,95.89
2018-05-13T00:11:59.635Z,96.27
2018-05-13T00:12:59.824Z,96.08
2018-05-13T00:14:00.011Z,95.79
2018-05-13T00:15:00.201Z,95.70
2018-05-13T00:16:00.391Z,96.47
2018-05-13T00:17:00.577Z,96.27
2018-05-13T00:18:00.768Z,96.08
2018-05-13T00:19:00.958Z,96.56
2018-05-13T00:20:01.151Z,96.56
2018-05-13T00:21:01.336Z,96.75
2018-05-13T00:22:01.527Z,96.75
2018-05-13T00:23:01.713Z,96.08
2018-05-13T00:24:01.904Z,96.66
2018-05-13T00:25:02.097Z,96.08
2018-05-13T00:26:02.282Z,95.61
2018-05-13T00:27:02.465Z,96.03
2018-05-13T00:28:02.655Z,96.75
2018-05-13T00:29:02.841Z,96.89
2018-05-13T00:30:03.030Z,97.08
2018-05-13T00:31:03.220Z,97.28
2018-05-13T00:32:03.409Z,97.95
2018-05-13T00:33:03.598Z,98.24
2018-05-13T00:34:03.784Z,98.71
2018-05-13T00:35:03.973Z,99.57
2018-05-13T00:36:04.161Z,99.14
2018-05-13T00:37:04.350Z,99.33
2018-05-13T00:38:04.539Z,99.38
2018-05-13T00:39:04.727Z,99.67
2018-05-13T00:40:04.917Z,98.52
2018-05-13T00:41:05.103Z,99.76
2018-05-13T00:42:05.292Z,99.38
2018-05-13T00:43:05.480Z,99.57
2018-05-13T00:44:05.670Z,99.29
2018-05-13T00:45:05.858Z,99.57
2018-05-13T00:46:06.047Z,98.90
2018-05-13T00:47:06.311Z,98.43
2018-05-13T00:48:06.423Z,98.81
2018-05-13T00:49:06.612Z,98.43
2018-05-13T00:50:06.800Z,98.43
2018-05-13T00:51:06.989Z,98.61
2018-05-13T00:52:07.179Z,98.24
2018-05-13T00:53:07.368Z,98.71
2018-05-13T00:54:07.552Z,98.81
2018-05-13T00:55:07.742Z,99.00
2018-05-13T00:56:07.930Z,99.43
2018-05-13T00:57:08.119Z,99.19
2018-05-13T00:58:08.308Z,99.38
2018-05-13T00:59:08.496Z,99.99
2018-05-13T01:00:08.684Z,99.90
2018-05-13T01:01:08.876Z,99.99
2018-05-13T01:02:09.064Z,99.99
2018-05-13T01:03:09.253Z,99.99
2018-05-13T01:04:09.440Z,99.90
2018-05-13T01:05:09.629Z,99.99
2018-05-13T01:06:09.815Z,99.99
2018-05-13T01:07:10.007Z,99.99
2018-05-13T01:08:10.196Z,99.99
2018-05-13T01:09:10.383Z,99.99
2018-05-13T01:10:10.572Z,99.99
2018-05-13T01:11:10.761Z,99.99
2018-05-13T01:12:10.948Z,99.99
2018-05-13T01:13:11.136Z,99.99
2018-05-13T01:14:11.325Z,99.99
2018-05-13T01:15:11.514Z,99.99
2018-05-13T01:16:11.703Z,99.99
2018-05-13T01:17:11.899Z,99.99
2018-05-13T01:18:12.085Z,99.99
2018-05-13T01:19:12.269Z,99.99
2018-05-13T01:20:12.457Z,99.99
2018-05-13T01:21:12.646Z,99.99
2018-05-13T01:22:12.834Z,99.99
2018-05-13T01:23:13.027Z,99.99
2018-05-13T01:24:13.212Z,99.99
2018-05-13T01:25:13.402Z,99.99
2018-05-13T01:26:13.590Z,99.99
2018-05-13T01:27:13.780Z,99.99
2018-05-13T01:28:13.968Z,99.99
2018-05-13T01:29:14.157Z,99.99
2018-05-13T01:30:14.345Z,99.99
2018-05-13T01:31:14.534Z,99.99
2018-05-13T01:32:14.722Z,99.99
2018-05-13T01:33:14.909Z,99.99
2018-05-13T01:34:15.099Z,99.99
2018-05-13T01:35:15.285Z,99.99
2018-05-13T01:36:15.474Z,99.99
2018-05-13T01:37:15.661Z,99.99
2018-05-13T01:38:15.851Z,99.99
2018-05-13T01:39:16.040Z,99.99
2018-05-13T01:40:16.228Z,99.99
2018-05-13T01:41:16.417Z,99.99
2018-05-13T01:42:16.607Z,99.99
2018-05-13T01:43:16.792Z,99.99
2018-05-13T01:44:16.981Z,99.99
2018-05-13T01:45:17.170Z,99.99
2018-05-13T01:46:17.360Z,99.99
2018-05-13T01:47:17.553Z,99.99
2018-05-13T01:48:17.737Z,99.99
2018-05-13T01:49:17.926Z,99.99
2018-05-13T01:50:18.111Z,99.99
2018-05-13T01:51:18.301Z,99.99
2018-05-13T01:52:18.492Z,99.99
2018-05-13T01:53:18.678Z,99.99
2018-05-13T01:54:18.866Z,99.99
2018-05-13T01:55:19.055Z,99.99
2018-05-13T01:56:19.244Z,99.99
2018-05-13T01:57:19.434Z,99.99
2018-05-13T01:58:19.618Z,99.99
2018-05-13T01:59:19.806Z,99.99
2018-05-13T02:00:19.998Z,99.99
2018-05-13T02:01:20.182Z,99.99
2018-05-13T02:02:20.373Z,99.99
2018-05-13T02:03:20.559Z,99.99
2018-05-13T02:04:20.746Z,99.99
2018-05-13T02:05:20.936Z,99.99
2018-05-13T02:06:21.124Z,99.99
2018-05-13T02:07:21.311Z,99.99
2018-05-13T02:08:21.501Z,99.99
2018-05-13T02:09:21.688Z,99.99
2018-05-13T02:10:21.877Z,99.99
2018-05-13T02:11:22.065Z,99.99
2018-05-13T02:12:22.252Z,99.99
2018-05-13T02:13:22.439Z,99.99
2018-05-13T02:14:22.627Z,99.99
2018-05-13T02:15:22.816Z,99.99
2018-05-13T02:16:23.007Z,99.99
2018-05-13T02:17:23.192Z,99.99
2018-05-13T02:18:23.380Z,99.99
2018-05-13T02:19:23.569Z,99.99
2018-05-13T02:20:23.756Z,99.99
2018-05-13T02:21:23.945Z,99.99
2018-05-13T02:22:24.133Z,99.99
2018-05-13T02:23:24.321Z,99.99
2018-05-13T02:24:24.509Z,99.99
2018-05-13T02:25:24.697Z,99.99
2018-05-13T02:26:24.887Z,99.99
2018-05-13T02:27:25.076Z,99.99
2018-05-13T02:28:25.266Z,99.99
2018-05-13T02:29:25.453Z,99.99
2018-05-13T02:30:25.640Z,99.99
2018-05-13T02:31:25.833Z,99.99
2018-05-13T02:32:26.019Z,99.99
2018-05-13T02:33:26.201Z,99.99
2018-05-13T02:34:26.392Z,99.99
2018-05-13T02:35:26.578Z,99.99
2018-05-13T02:36:26.767Z,99.99
2018-05-13T02:37:26.954Z,99.99
2018-05-13T02:38:27.148Z,99.99
2018-05-13T02:39:27.331Z,99.99
2018-05-13T02:40:27.518Z,99.99
2018-05-13T02:41:27.706Z,99.99
2018-05-13T02:42:27.897Z,99.99
2018-05-13T02:43:28.084Z,99.99
2018-05-13T02:44:28.272Z,99.99
2018-05-13T02:45:28.459Z,99.99
2018-05-13T02:46:28.700Z,99.99
2018-05-13T02:47:28.840Z,99.99
2018-05-13T02:48:29.024Z,99.99
2018-05-13T02:49:29.211Z,99.99
2018-05-13T02:50:29.399Z,99.99
2018-05-13T02:51:29.588Z,99.99
2018-05-13T02:52:29.780Z,99.99
2018-05-13T02:53:29.963Z,99.99
2018-05-13T02:54:30.151Z,99.99
2018-05-13T02:55:30.339Z,99.99
2018-05-13T02:56:30.528Z,99.99
2018-05-13T02:57:30.713Z,99.99
2018-05-13T02:58:30.903Z,99.99
2018-05-13T02:59:31.090Z,99.99
2018-05-13T03:00:31.277Z,99.99
2018-05-13T03:01:31.466Z,99.99
2018-05-13T03:02:31.654Z,99.99
2018-05-13T03:03:31.849Z,99.99
2018-05-13T03:04:32.031Z,99.99
2018-05-13T03:05:32.219Z,99.99
2018-05-13T03:06:32.405Z,99.99
2018-05-13T03:07:32.593Z,99.99
2018-05-13T03:08:32.782Z,99.99
2018-05-13T03:09:32.968Z,99.99
2018-05-13T03:10:33.156Z,99.99
2018-05-13T03:11:33.346Z,99.99
2018-05-13T03:12:33.602Z,99.99
2018-05-13T03:13:33.721Z,99.99
2018-05-13T03:14:33.908Z,99.99
2018-05-13T03:15:34.098Z,99.99
2018-05-13T03:16:34.284Z,99.99
2018-05-13T03:17:34.473Z,99.99
2018-05-13T03:18:34.661Z,99.99
2018-05-13T03:19:34.848Z,99.99
2018-05-13T03:20:35.038Z,99.99
2018-05-13T03:21:35.226Z,99.99
2018-05-13T03:22:35.413Z,99.99
2018-05-13T03:23:35.602Z,99.99
2018-05-13T03:24:35.789Z,99.99
2018-05-13T03:25:35.976Z,99.99
2018-05-13T03:26:36.163Z,99.99
2018-05-13T03:27:36.353Z,99.99
2018-05-13T03:28:36.542Z,99.99
2018-05-13T03:29:36.727Z,99.99
2018-05-13T03:30:36.916Z,99.99
2018-05-13T03:31:37.104Z,99.99
2018-05-13T03:32:37.294Z,99.99
2018-05-13T03:33:37.479Z,99.99
2018-05-13T03:34:37.667Z,99.99
2018-05-13T03:35:37.854Z,99.99
2018-05-13T03:36:38.041Z,99.99
2018-05-13T03:37:38.231Z,99.99
2018-05-13T03:38:38.419Z,99.99
2018-05-13T03:39:38.606Z,99.99
2018-05-13T03:40:38.876Z,99.99
2018-05-13T03:41:38.983Z,99.99
2018-05-13T03:42:39.170Z,99.99
2018-05-13T03:43:39.358Z,99.99
2018-05-13T03:44:39.548Z,99.99
2018-05-13T03:45:39.736Z,99.99
2018-05-13T03:46:39.931Z,99.99
2018-05-13T03:47:40.118Z,99.99
2018-05-13T03:48:40.301Z,99.99
2018-05-13T03:49:40.491Z,99.99
2018-05-13T03:50:40.678Z,99.99
2018-05-13T03:51:40.867Z,99.99
2018-05-13T03:52:41.055Z,99.99
2018-05-13T03:53:41.242Z,99.99
2018-05-13T03:54:41.435Z,99.99
2018-05-13T03:55:41.618Z,99.99
2018-05-13T03:56:41.806Z,99.99
2018-05-13T03:57:41.995Z,99.99
2018-05-13T03:58:42.186Z,99.99
2018-05-13T03:59:42.371Z,99.62
2018-05-13T04:00:42.561Z,99.19
2018-05-13T04:01:42.751Z,98.33
2018-05-13T04:02:42.939Z,97.37
2018-05-13T04:03:43.128Z,96.51
2018-05-13T04:04:43.319Z,96.08
2018-05-13T04:05:43.505Z,95.98
2018-05-13T04:06:43.695Z,96.18
2018-05-13T04:07:43.884Z,95.75
2018-05-13T04:08:44.073Z,96.18
2018-05-13T04:09:44.262Z,96.08
2018-05-13T04:10:44.452Z,95.51
2018-05-13T04:11:44.640Z,94.93
2018-05-13T04:12:44.831Z,95.17
2018-05-13T04:13:45.021Z,94.21
2018-05-13T04:14:45.209Z,93.26
2018-05-13T04:15:45.399Z,92.44
2018-05-13T04:16:45.589Z,91.92
2018-05-13T04:17:45.779Z,92.78
2018-05-13T04:18:46.042Z,94.55
2018-05-13T04:19:46.159Z,95.61
2018-05-13T04:20:46.350Z,95.98
2018-05-13T04:21:46.543Z,95.98
2018-05-13T04:22:46.733Z,95.89
2018-05-13T04:23:46.923Z,95.84
2018-05-13T04:24:47.113Z,96.32
2018-05-13T04:25:47.305Z,96.89
2018-05-13T04:26:47.495Z,96.89
2018-05-13T04:27:47.686Z,96.61
2018-05-13T04:28:47.878Z,97.08
2018-05-13T04:29:48.069Z,97.47
2018-05-13T04:30:48.259Z,97.18
2018-05-13T04:31:48.450Z,97.66
2018-05-13T04:32:48.641Z,97.47
2018-05-13T04:33:48.833Z,97.28
2018-05-13T04:34:49.022Z,97.08
2018-05-13T04:35:49.215Z,97.47
2018-05-13T04:36:49.405Z,97.18
2018-05-13T04:37:49.600Z,97.37
2018-05-13T04:38:49.788Z,96.80
2018-05-13T04:39:49.980Z,96.27
2018-05-13T04:40:50.170Z,95.61
2018-05-13T04:41:50.367Z,95.51
2018-05-13T04:42:50.554Z,95.51
2018-05-13T04:43:50.747Z,95.31
2018-05-13T04:44:50.941Z,95.61
2018-05-13T04:45:51.133Z,95.79
2018-05-13T04:46:51.325Z,95.98
2018-05-13T04:47:51.517Z,95.98
2018-05-13T04:48:51.710Z,96.32
2018-05-13T04:49:51.903Z,96.56
2018-05-13T04:50:52.093Z,96.37
2018-05-13T04:51:52.284Z,95.79
2018-05-13T04:52:52.477Z,96.37
2018-05-13T04:53:52.670Z,95.98
2018-05-13T04:54:52.861Z,95.98
2018-05-13T04:55:53.057Z,96.75
2018-05-13T04:56:53.247Z,96.75
2018-05-13T04:57:53.439Z,96.18
2018-05-13T04:58:53.631Z,96.13
2018-05-13T04:59:53.823Z,94.89
2018-05-13T05:00:54.018Z,94.50
2018-05-13T05:01:54.207Z,93.88
2018-05-13T05:02:54.402Z,93.02
2018-05-13T05:03:54.594Z,92.01
2018-05-13T05:04:54.786Z,90.90
2018-05-13T05:05:54.979Z,89.47
2018-05-13T05:06:55.173Z,88.98
2018-05-13T05:07:55.366Z,88.26
2018-05-13T05:08:55.624Z,86.77
2018-05-13T05:09:55.755Z,85.33
2018-05-13T05:10:55.951Z,85.52
2018-05-13T05:11:56.144Z,85.33
2018-05-13T05:12:56.339Z,86.63
2018-05-13T05:13:56.533Z,86.92
2018-05-13T05:14:56.728Z,88.70
2018-05-13T05:15:56.923Z,88.74
2018-05-13T05:16:57.119Z,88.65
2018-05-13T05:17:57.317Z,89.17
2018-05-13T05:18:57.510Z,86.14
2018-05-13T05:19:57.706Z,84.56
2018-05-13T05:20:57.903Z,85.19
2018-05-13T05:21:58.100Z,86.54
2018-05-13T05:22:58.297Z,87.98
2018-05-13T05:23:58.494Z,88.51
2018-05-13T05:24:58.691Z,88.70
2018-05-13T05:25:58.886Z,88.79
2018-05-13T05:26:59.084Z,88.60
2018-05-13T05:27:59.303Z,89.56
2018-05-13T05:28:59.478Z,90.04
2018-05-13T05:29:59.678Z,89.56
2018-05-13T05:30:59.873Z,89.61
2018-05-13T05:32:00.072Z,89.56
2018-05-13T05:33:00.268Z,89.56
2018-05-13T05:34:00.465Z,89.22
2018-05-13T05:35:00.664Z,89.51
2018-05-13T05:36:00.862Z,89.03
2018-05-13T05:37:01.058Z,86.72
2018-05-13T05:38:01.255Z,87.98
2018-05-13T05:39:01.452Z,87.98
2018-05-13T05:40:01.651Z,88.74
2018-05-13T05:41:01.847Z,87.40
2018-05-13T05:42:02.046Z,87.15
2018-05-13T05:43:02.244Z,86.96
2018-05-13T05:44:02.443Z,87.15
2018-05-13T05:45:02.639Z,87.15
2018-05-13T05:46:02.840Z,87.54
2018-05-13T05:47:03.040Z,86.58
2018-05-13T05:48:03.278Z,86.87
2018-05-13T05:49:03.437Z,86.77
2018-05-13T05:50:03.635Z,86.58
2018-05-13T05:51:03.835Z,86.72
2018-05-13T05:52:04.040Z,85.62
2018-05-13T05:53:04.237Z,86.19
2018-05-13T05:54:04.435Z,86.77
2018-05-13T05:55:04.636Z,87.25
2018-05-13T05:56:04.840Z,88.25
2018-05-13T05:57:05.034Z,85.52
2018-05-13T05:58:05.234Z,87.01
2018-05-13T05:59:05.434Z,84.55
2018-05-13T06:00:05.635Z,83.20
2018-05-13T06:01:05.835Z,83.26
2018-05-13T06:02:06.036Z,84.64
2018-05-13T06:03:06.246Z,84.26
2018-05-13T06:04:06.440Z,84.74
2018-05-13T06:05:06.643Z,83.11
2018-05-13T06:06:06.840Z,83.20
2018-05-13T06:07:07.041Z,83.20
2018-05-13T06:08:07.243Z,81.32
2018-05-13T06:09:07.443Z,81.46
2018-05-13T06:10:07.645Z,80.69
2018-05-13T06:11:07.847Z,80.17
2018-05-13T06:12:08.049Z,82.19
2018-05-13T06:13:08.248Z,82.34
2018-05-13T06:14:08.451Z,82.15
2018-05-13T06:15:08.653Z,81.81
2018-05-13T06:16:08.855Z,81.81
2018-05-13T06:17:09.058Z,81.23
2018-05-13T06:18:09.261Z,80.79
2018-05-13T06:19:09.461Z,80.27
2018-05-13T06:20:09.667Z,81.04
2018-05-13T06:21:09.865Z,81.71
2018-05-13T06:22:10.068Z,81.81
2018-05-13T06:23:10.271Z,82.29
2018-05-13T06:24:10.478Z,81.13
2018-05-13T06:25:10.703Z,81.67
2018-05-13T06:26:10.877Z,82.57
2018-05-13T06:27:11.083Z,80.94
2018-05-13T06:28:11.287Z,80.94
2018-05-13T06:29:11.485Z,80.30
2018-05-13T06:30:11.687Z,79.44
2018-05-13T06:31:11.888Z,79.28
2018-05-13T06:32:12.092Z,78.42
2018-05-13T06:33:12.292Z,78.48
2018-05-13T06:34:12.496Z,79.92
2018-05-13T06:35:12.697Z,80.79
2018-05-13T06:36:12.900Z,79.79
2018-05-13T06:37:13.102Z,81.23
2018-05-13T06:38:13.305Z,79.15
2018-05-13T06:39:13.507Z,80.15
2018-05-13T06:40:13.708Z,78.86
2018-05-13T06:41:13.908Z,78.96
2018-05-13T06:42:14.114Z,78.81
2018-05-13T06:43:14.314Z,78.19
2018-05-13T06:44:14.518Z,77.90
2018-05-13T06:45:14.794Z,78.33
2018-05-13T06:46:14.922Z,78.90
2018-05-13T06:47:15.127Z,77.69
2018-05-13T06:48:15.328Z,77.31
2018-05-13T06:49:15.529Z,76.59
2018-05-13T06:50:15.733Z,77.88
2018-05-13T06:51:15.957Z,76.59
2018-05-13T06:52:16.142Z,75.38
2018-05-13T06:53:16.345Z,75.61
2018-05-13T06:54:16.547Z,74.22
2018-05-13T06:55:16.752Z,74.51
2018-05-13T06:56:16.953Z,75.76
2018-05-13T06:57:17.200Z,75.38
2018-05-13T06:58:17.363Z,75.03
2018-05-13T06:59:17.566Z,74.68
2018-05-13T07:00:17.770Z,72.37
2018-05-13T07:01:17.973Z,74.14
2018-05-13T07:02:18.178Z,70.48
2018-05-13T07:03:18.383Z,68.04
2018-05-13T07:04:18.590Z,65.14
2018-05-13T07:05:18.793Z,65.63
2018-05-13T07:06:18.997Z,64.14
2018-05-13T07:07:19.220Z,62.79
2018-05-13T07:08:19.407Z,60.43
2018-05-13T07:09:19.611Z,59.10
2018-05-13T07:10:19.848Z,60.59
2018-05-13T07:11:20.021Z,60.72
2018-05-13T07:12:20.227Z,58.06
2018-05-13T07:13:20.434Z,58.81
2018-05-13T07:14:20.640Z,59.59
2018-05-13T07:15:20.848Z,58.62
2018-05-13T07:16:21.089Z,61.56
2018-05-13T07:17:21.256Z,63.08
2018-05-13T07:18:21.463Z,63.69
2018-05-13T07:19:21.681Z,67.88
2018-05-13T07:20:21.876Z,67.49
2018-05-13T07:21:22.081Z,68.45
2018-05-13T07:22:22.288Z,71.48
2018-05-13T07:23:22.494Z,70.64
2018-05-13T07:24:22.700Z,69.42
2018-05-13T07:25:22.906Z,68.55
2018-05-13T07:26:23.111Z,68.65
2018-05-13T07:27:23.317Z,68.91
2018-05-13T07:28:23.527Z,70.32
2018-05-13T07:29:23.730Z,72.02
2018-05-13T07:30:23.935Z,74.20
2018-05-13T07:31:24.142Z,74.01
2018-05-13T07:32:24.348Z,73.82
2018-05-13T07:33:24.555Z,74.82
2018-05-13T07:34:24.760Z,72.44
2018-05-13T07:35:24.968Z,72.44
2018-05-13T07:36:25.171Z,69.68
2018-05-13T07:37:25.376Z,69.78
2018-05-13T07:38:25.581Z,71.38
2018-05-13T07:39:25.785Z,69.78
2018-05-13T07:40:25.991Z,70.54
2018-05-13T07:41:26.195Z,69.13
2018-05-13T07:42:26.399Z,67.46
2018-05-13T07:43:26.623Z,67.43
2018-05-13T07:44:26.807Z,71.00
2018-05-13T07:45:27.014Z,72.41
2018-05-13T07:46:27.219Z,73.85
2018-05-13T07:47:27.424Z,74.82
2018-05-13T07:48:27.629Z,74.24
2018-05-13T07:49:27.833Z,74.43
2018-05-13T07:50:28.041Z,72.99
2018-05-13T07:51:28.241Z,72.15
2018-05-13T07:52:28.445Z,71.06
2018-05-13T07:53:28.650Z,70.58
2018-05-13T07:54:28.854Z,71.42
2018-05-13T07:55:29.059Z,72.83
2018-05-13T07:56:29.262Z,72.77
2018-05-13T07:57:29.468Z,71.68
2018-05-13T07:58:29.677Z,69.84
2018-05-13T07:59:29.875Z,71.00
2018-05-13T08:00:30.083Z,72.15
2018-05-13T08:01:30.286Z,73.50
2018-05-13T08:02:30.491Z,72.63
2018-05-13T08:03:30.693Z,72.54
2018-05-13T08:04:30.901Z,74.21
2018-05-13T08:05:31.102Z,72.38
2018-05-13T08:06:31.304Z,72.77
2018-05-13T08:07:31.505Z,71.64
2018-05-13T08:08:31.710Z,72.90
2018-05-13T08:09:31.910Z,70.42
2018-05-13T08:10:32.127Z,69.84
2018-05-13T08:11:32.331Z,70.48
2018-05-13T08:12:32.535Z,71.48
2018-05-13T08:13:32.736Z,74.18
2018-05-13T08:14:32.941Z,72.77
2018-05-13T08:15:33.145Z,73.21
2018-05-13T08:16:33.345Z,74.91
2018-05-13T08:17:33.553Z,74.52
2018-05-13T08:18:33.753Z,74.43
2018-05-13T08:19:33.953Z,73.75
2018-05-13T08:20:34.245Z,75.49
2018-05-13T08:21:34.357Z,75.68
2018-05-13T08:22:34.558Z,75.30
2018-05-13T08:23:34.761Z,75.24
2018-05-13T08:24:34.963Z,75.82
2018-05-13T08:25:35.152Z,74.18
2018-05-13T08:26:35.361Z,74.66
2018-05-13T08:27:35.560Z,74.43
2018-05-13T08:28:35.761Z,76.78
2018-05-13T08:29:35.965Z,74.52
2018-05-13T08:30:36.177Z,75.30
2018-05-13T08:31:36.357Z,74.43
2018-05-13T08:32:36.556Z,75.01
2018-05-13T08:33:36.757Z,75.20
2018-05-13T08:34:36.954Z,74.43
2018-05-13T08:35:37.153Z,75.40
2018-05-13T08:36:37.352Z,74.82
2018-05-13T08:37:37.549Z,74.82
2018-05-13T08:38:37.749Z,74.47
2018-05-13T08:39:37.946Z,73.41
2018-05-13T08:40:38.146Z,72.73
2018-05-13T08:41:38.348Z,72.28
2018-05-13T08:42:38.546Z,72.38
2018-05-13T08:43:38.743Z,71.42
2018-05-13T08:44:38.941Z,71.51
2018-05-13T08:45:39.139Z,71.70
2018-05-13T08:46:39.337Z,70.97
2018-05-13T08:47:39.536Z,71.23
2018-05-13T08:48:39.763Z,67.27
2018-05-13T08:49:39.932Z,68.17
2018-05-13T08:50:40.128Z,69.43
2018-05-13T08:51:40.328Z,68.08
2018-05-13T08:52:40.529Z,68.79
2018-05-13T08:53:40.729Z,67.79
2018-05-13T08:54:40.928Z,67.30
2018-05-13T08:55:41.126Z,68.27
2018-05-13T08:56:41.326Z,66.72
2018-05-13T08:57:41.525Z,65.95
2018-05-13T08:58:41.725Z,67.98
2018-05-13T08:59:41.980Z,66.98
2018-05-13T09:00:42.126Z,67.49
2018-05-13T09:01:42.327Z,65.43
2018-05-13T09:02:42.531Z,61.24
2018-05-13T09:03:42.731Z,60.68
2018-05-13T09:04:42.933Z,59.38
2018-05-13T09:05:43.133Z,57.67
2018-05-13T09:06:43.333Z,56.24
2018-05-13T09:07:43.537Z,57.64
2018-05-13T09:08:43.738Z,58.67
2018-05-13T09:09:43.939Z,60.43
2018-05-13T09:10:44.141Z,63.01
2018-05-13T09:11:44.341Z,62.24
2018-05-13T09:12:44.544Z,63.56
2018-05-13T09:13:44.745Z,63.59
2018-05-13T09:14:44.946Z,61.11
2018-05-13T09:15:45.149Z,61.33
2018-05-13T09:16:45.351Z,60.07
2018-05-13T09:17:45.552Z,60.58
2018-05-13T09:18:45.753Z,60.58
2018-05-13T09:19:45.956Z,57.64
2018-05-13T09:20:46.215Z,55.63
2018-05-13T09:21:46.362Z,58.00
2018-05-13T09:22:46.560Z,60.91
2018-05-13T09:23:46.763Z,63.53
2018-05-13T09:24:46.964Z,59.74
2018-05-13T09:25:47.165Z,56.67
2018-05-13T09:26:47.370Z,55.63
2018-05-13T09:27:47.572Z,56.65
2018-05-13T09:28:47.771Z,56.21
2018-05-13T09:29:47.973Z,55.19
2018-05-13T09:30:48.177Z,58.05
2018-05-13T09:31:48.380Z,58.42
2018-05-13T09:32:48.582Z,61.82
2018-05-13T09:33:48.787Z,61.19
2018-05-13T09:34:48.988Z,59.90
2018-05-13T09:35:49.187Z,58.83
2018-05-13T09:36:49.392Z,57.96
2018-05-13T09:37:49.591Z,56.89
2018-05-13T09:38:49.793Z,54.61
2018-05-13T09:39:49.996Z,52.59
2018-05-13T09:40:50.198Z,51.65
2018-05-13T09:41:50.401Z,52.53
2018-05-13T09:42:50.602Z,52.94
2018-05-13T09:43:50.802Z,53.93
2018-05-13T09:44:51.005Z,53.77
2018-05-13T09:45:51.256Z,53.38
2018-05-13T09:46:51.409Z,52.82
2018-05-13T09:47:51.611Z,52.65
2018-05-13T09:48:51.814Z,51.70
2018-05-13T09:49:52.017Z,51.41
2018-05-13T09:50:52.217Z,51.51
2018-05-13T09:51:52.420Z,50.99
2018-05-13T09:52:52.623Z,52.37
2018-05-13T09:53:52.825Z,54.10
2018-05-13T09:54:53.027Z,54.07
2018-05-13T09:55:53.229Z,54.49
2018-05-13T09:56:53.430Z,54.29
2018-05-13T09:57:53.634Z,52.96
2018-05-13T09:58:53.833Z,53.22
2018-05-13T09:59:54.035Z,56.30
2018-05-13T10:00:54.297Z,56.11
2018-05-13T10:01:54.436Z,54.78
2018-05-13T10:02:54.637Z,54.25
2018-05-13T10:03:54.838Z,52.82
2018-05-13T10:04:55.044Z,51.58
2018-05-13T10:05:55.240Z,50.24
2018-05-13T10:06:55.444Z,49.10
2018-05-13T10:07:55.643Z,48.07
2018-05-13T10:08:55.845Z,52.65
2018-05-13T10:09:56.046Z,51.02
2018-05-13T10:10:56.247Z,50.78
2018-05-13T10:11:56.449Z,53.20
2018-05-13T10:12:56.648Z,49.99
2018-05-13T10:13:56.857Z,48.88
2018-05-13T10:14:57.054Z,48.27
2018-05-13T10:15:57.254Z,50.46
2018-05-13T10:16:57.455Z,51.82
2018-05-13T10:17:57.654Z,52.57
2018-05-13T10:18:57.855Z,52.98
2018-05-13T10:19:58.054Z,51.94
2018-05-13T10:20:58.257Z,50.80
2018-05-13T10:21:58.458Z,50.24
2018-05-13T10:22:58.659Z,49.58
2018-05-13T10:23:58.859Z,49.00
2018-05-13T10:24:59.061Z,48.61
2018-05-13T10:25:59.262Z,48.71
2018-05-13T10:26:59.464Z,48.49
2018-05-13T10:27:59.664Z,49.73
2018-05-13T10:28:59.865Z,48.10
2018-05-13T10:30:00.064Z,47.61
2018-05-13T10:31:00.265Z,48.46
2018-05-13T10:32:00.469Z,51.36
2018-05-13T10:33:00.673Z,51.02
2018-05-13T10:34:00.870Z,51.04
2018-05-13T10:35:01.071Z,49.61
2018-05-13T10:36:01.274Z,49.12
2018-05-13T10:37:01.478Z,48.54
2018-05-13T10:38:01.673Z,48.12
2018-05-13T10:39:01.878Z,49.46
2018-05-13T10:40:02.075Z,48.05
2018-05-13T10:41:02.276Z,46.34
2018-05-13T10:42:02.478Z,46.07
2018-05-13T10:43:02.678Z,44.80
2018-05-13T10:44:02.883Z,46.86
2018-05-13T10:45:03.080Z,47.71
2018-05-13T10:46:03.282Z,50.48
2018-05-13T10:47:03.482Z,50.89
2018-05-13T10:48:03.683Z,54.24
2018-05-13T10:49:03.884Z,53.37
2018-05-13T10:50:04.085Z,52.69
2018-05-13T10:51:04.285Z,52.98
2018-05-13T10:52:04.484Z,53.10
2018-05-13T10:53:04.685Z,53.49
2018-05-13T10:54:04.885Z,55.18
2018-05-13T10:55:05.087Z,56.39
2018-05-13T10:56:05.286Z,56.49
2018-05-13T10:57:05.486Z,57.65
2018-05-13T10:58:05.686Z,57.94
2018-05-13T10:59:05.884Z,58.72
2018-05-13T11:00:06.084Z,58.42
2018-05-13T11:01:06.288Z,60.33
2018-05-13T11:02:06.480Z,62.37
2018-05-13T11:03:06.679Z,63.56
2018-05-13T11:04:06.877Z,64.14
2018-05-13T11:05:07.077Z,63.82
2018-05-13T11:06:07.277Z,67.88
2018-05-13T11:07:07.476Z,67.18
2018-05-13T11:08:07.671Z,65.82
2018-05-13T11:09:07.875Z,66.02
2018-05-13T11:10:08.106Z,66.60
2018-05-13T11:11:08.267Z,66.47
2018-05-13T11:12:08.465Z,67.63
2018-05-13T11:13:08.663Z,67.33
2018-05-13T11:14:08.859Z,67.85
2018-05-13T11:15:09.055Z,68.73
2018-05-13T11:16:09.254Z,68.76
2018-05-13T11:17:09.461Z,71.50
2018-05-13T11:18:09.648Z,67.30
2018-05-13T11:19:09.844Z,67.82
2018-05-13T11:20:10.048Z,66.85
2018-05-13T11:21:10.243Z,64.17
2018-05-13T11:22:10.435Z,61.10
2018-05-13T11:23:10.631Z,61.17
2018-05-13T11:24:10.828Z,61.82
2018-05-13T11:25:11.028Z,59.07
2018-05-13T11:26:11.221Z,61.33
2018-05-13T11:27:11.417Z,61.52
2018-05-13T11:28:11.616Z,61.04
2018-05-13T11:29:11.810Z,60.91
2018-05-13T11:30:12.007Z,61.88
2018-05-13T11:31:12.204Z,63.53
2018-05-13T11:32:12.401Z,64.66
2018-05-13T11:33:12.597Z,64.98
2018-05-13T11:34:12.794Z,63.62
2018-05-13T11:35:12.998Z,63.79
2018-05-13T11:36:13.186Z,62.72
2018-05-13T11:37:13.383Z,63.59
2018-05-13T11:38:13.580Z,62.95
2018-05-13T11:39:13.776Z,60.43
2018-05-13T11:40:13.971Z,59.30
2018-05-13T11:41:14.168Z,59.49
2018-05-13T11:42:14.372Z,58.55
2018-05-13T11:43:14.559Z,58.42
2018-05-13T11:44:14.760Z,58.65
2018-05-13T11:45:14.955Z,56.64
2018-05-13T11:46:15.149Z,58.90
2018-05-13T11:47:15.348Z,56.79
2018-05-13T11:48:15.543Z,57.28
2018-05-13T11:49:15.739Z,57.72
2018-05-13T11:50:15.943Z,55.78
2018-05-13T11:51:16.133Z,55.68
2018-05-13T11:52:16.331Z,54.13
2018-05-13T11:53:16.528Z,56.82
2018-05-13T11:54:16.728Z,55.33
2018-05-13T11:55:16.923Z,54.66
2018-05-13T11:56:17.117Z,60.09
2018-05-13T11:57:17.314Z,61.91
2018-05-13T11:58:17.515Z,62.52
2018-05-13T11:59:17.712Z,63.01
2018-05-13T12:00:17.909Z,62.72
2018-05-13T12:01:18.105Z,63.59
2018-05-13T12:02:18.307Z,63.10
2018-05-13T12:03:18.501Z,62.13
2018-05-13T12:04:18.700Z,60.52
2018-05-13T12:05:18.897Z,61.00
2018-05-13T12:06:19.092Z,60.13
2018-05-13T12:07:19.289Z,60.32
2018-05-13T12:08:19.486Z,60.91
2018-05-13T12:09:19.686Z,61.52
2018-05-13T12:10:19.880Z,61.00
2018-05-13T12:11:20.084Z,63.01
2018-05-13T12:12:20.276Z,63.30
2018-05-13T12:13:20.473Z,65.05
2018-05-13T12:14:20.671Z,63.95
2018-05-13T12:15:20.868Z,64.59
2018-05-13T12:16:21.066Z,64.89
2018-05-13T12:17:21.263Z,67.02
2018-05-13T12:18:21.462Z,65.47
2018-05-13T12:19:21.658Z,66.43
2018-05-13T12:20:21.854Z,64.89
2018-05-13T12:21:22.047Z,64.47
2018-05-13T12:22:22.244Z,65.14
2018-05-13T12:23:22.442Z,65.30
2018-05-13T12:24:22.639Z,65.69
2018-05-13T12:25:22.833Z,65.05
2018-05-13T12:26:23.027Z,65.69
2018-05-13T12:27:23.223Z,66.95
2018-05-13T12:28:23.420Z,67.11
2018-05-13T12:29:23.614Z,66.66
2018-05-13T12:30:23.809Z,67.01
2018-05-13T12:31:24.005Z,66.43
2018-05-13T12:32:24.202Z,67.24
2018-05-13T12:33:24.397Z,66.08
2018-05-13T12:34:24.607Z,67.40
2018-05-13T12:35:24.793Z,67.91
2018-05-13T12:36:24.986Z,65.69
2018-05-13T12:37:25.179Z,64.53
2018-05-13T12:38:25.375Z,65.98
2018-05-13T12:39:25.570Z,65.40
2018-05-13T12:40:25.765Z,63.76
2018-05-13T12:41:25.961Z,65.43
2018-05-13T12:42:26.157Z,63.11
2018-05-13T12:43:26.356Z,64.07
2018-05-13T12:44:26.548Z,62.72
2018-05-13T12:45:26.742Z,63.40
2018-05-13T12:46:26.940Z,62.63
2018-05-13T12:47:27.135Z,62.37
2018-05-13T12:48:27.328Z,64.98
2018-05-13T12:49:27.525Z,65.14
2018-05-13T12:50:27.721Z,68.05
2018-05-13T12:51:27.916Z,67.02
2018-05-13T12:52:28.112Z,68.08
2018-05-13T12:53:28.309Z,67.46
2018-05-13T12:54:28.505Z,67.27
2018-05-13T12:55:28.701Z,69.37